sensor_id;sensor_type;location;lat;lon;timestamp;P1;durP1;ratioP1;P2;durP2;ratioP2
68475;SDS011;55464;48.266;14.188;2022-07-29T00:01:17;3.60;;;3.30;;
68475;SDS011;55464;48.266;14.188;2022-07-29T00:03:43;5.72;;;3.30;;
68475;SDS011;55464;48.266;14.188;2022-07-29T00:06:09;4.78;;;3.42;;
68475;SDS011;55464;48.266;14.188;2022-07-29T00:08:34;4.28;;;3.45;;
68475;SDS011;55464;48.266;14.188;2022-07-29T00:11:00;4.15;;;3.22;;
68475;SDS011;55464;48.266;14.188;2022-07-29T00:13:26;3.67;;;3.30;;
68475;SDS011;55464;48.266;14.188;2022-07-29T00:15:51;5.60;;;3.50;;
68475;SDS011;55464;48.266;14.188;2022-07-29T00:18:17;3.97;;;3.28;;
68475;SDS011;55464;48.266;14.188;2022-07-29T00:20:42;3.65;;;3.33;;
68475;SDS011;55464;48.266;14.188;2022-07-29T00:23:08;4.90;;;3.80;;
68475;SDS011;55464;48.266;14.188;2022-07-29T00:25:34;3.65;;;3.33;;
68475;SDS011;55464;48.266;14.188;2022-07-29T00:27:59;3.53;;;3.22;;
68475;SDS011;55464;48.266;14.188;2022-07-29T00:30:25;3.70;;;3.40;;
68475;SDS011;55464;48.266;14.188;2022-07-29T00:32:51;5.25;;;3.60;;
68475;SDS011;55464;48.266;14.188;2022-07-29T00:35:16;4.40;;;4.00;;
68475;SDS011;55464;48.266;14.188;2022-07-29T00:38:00;8.23;;;3.70;;
68475;SDS011;55464;48.266;14.188;2022-07-29T00:40:26;3.70;;;3.40;;
68475;SDS011;55464;48.266;14.188;2022-07-29T00:42:52;4.10;;;3.47;;
68475;SDS011;55464;48.266;14.188;2022-07-29T00:45:18;3.95;;;3.38;;
68475;SDS011;55464;48.266;14.188;2022-07-29T00:47:44;4.45;;;3.80;;
68475;SDS011;55464;48.266;14.188;2022-07-29T00:50:11;8.52;;;4.13;;
68475;SDS011;55464;48.266;14.188;2022-07-29T00:52:38;4.50;;;3.35;;
68475;SDS011;55464;48.266;14.188;2022-07-29T00:55:06;4.00;;;3.60;;
68475;SDS011;55464;48.266;14.188;2022-07-29T00:57:34;4.32;;;3.92;;
68475;SDS011;55464;48.266;14.188;2022-07-29T01:00:01;4.22;;;3.83;;
68475;SDS011;55464;48.266;14.188;2022-07-29T01:02:30;6.80;;;3.67;;
68475;SDS011;55464;48.266;14.188;2022-07-29T01:04:56;4.25;;;3.65;;
68475;SDS011;55464;48.266;14.188;2022-07-29T01:07:23;5.65;;;3.85;;
68475;SDS011;55464;48.266;14.188;2022-07-29T01:09:50;5.70;;;4.25;;
68475;SDS011;55464;48.266;14.188;2022-07-29T01:12:19;4.35;;;3.63;;
68475;SDS011;55464;48.266;14.188;2022-07-29T01:14:48;3.97;;;3.28;;
68475;SDS011;55464;48.266;14.188;2022-07-29T01:17:26;3.95;;;3.55;;
68475;SDS011;55464;48.266;14.188;2022-07-29T01:20:09;5.90;;;3.95;;
68475;SDS011;55464;48.266;14.188;2022-07-29T01:31:33;6.78;;;3.92;;
68475;SDS011;55464;48.266;14.188;2022-07-29T01:34:37;4.38;;;3.97;;
68475;SDS011;55464;48.266;14.188;2022-07-29T01:37:12;4.43;;;3.90;;
68475;SDS011;55464;48.266;14.188;2022-07-29T01:39:44;5.45;;;4.38;;
68475;SDS011;55464;48.266;14.188;2022-07-29T01:44:57;4.78;;;3.50;;
68475;SDS011;55464;48.266;14.188;2022-07-29T01:50:17;3.80;;;3.50;;
68475;SDS011;55464;48.266;14.188;2022-07-29T01:55:26;7.15;;;3.92;;
68475;SDS011;55464;48.266;14.188;2022-07-29T01:58:04;3.83;;;3.53;;
68475;SDS011;55464;48.266;14.188;2022-07-29T02:00:32;3.95;;;3.55;;
68475;SDS011;55464;48.266;14.188;2022-07-29T02:03:00;5.10;;;3.58;;
68475;SDS011;55464;48.266;14.188;2022-07-29T02:05:29;3.90;;;3.45;;
68475;SDS011;55464;48.266;14.188;2022-07-29T02:07:57;4.00;;;3.60;;
68475;SDS011;55464;48.266;14.188;2022-07-29T02:10:25;4.07;;;3.67;;
68475;SDS011;55464;48.266;14.188;2022-07-29T02:12:54;5.93;;;3.90;;
68475;SDS011;55464;48.266;14.188;2022-07-29T02:15:22;5.30;;;4.25;;
68475;SDS011;55464;48.266;14.188;2022-07-29T02:17:51;7.15;;;4.20;;
68475;SDS011;55464;48.266;14.188;2022-07-29T02:20:22;4.40;;;4.00;;
68475;SDS011;55464;48.266;14.188;2022-07-29T02:22:49;4.85;;;4.07;;
68475;SDS011;55464;48.266;14.188;2022-07-29T02:25:16;4.18;;;3.78;;
68475;SDS011;55464;48.266;14.188;2022-07-29T02:27:43;4.50;;;4.10;;
68475;SDS011;55464;48.266;14.188;2022-07-29T02:30:10;4.72;;;4.15;;
68475;SDS011;55464;48.266;14.188;2022-07-29T02:32:37;5.40;;;4.05;;
68475;SDS011;55464;48.266;14.188;2022-07-29T02:35:05;7.70;;;4.97;;
68475;SDS011;55464;48.266;14.188;2022-07-29T02:37:33;5.28;;;4.32;;
68475;SDS011;55464;48.266;14.188;2022-07-29T02:40:00;4.93;;;4.43;;
68475;SDS011;55464;48.266;14.188;2022-07-29T02:42:27;7.45;;;4.68;;
68475;SDS011;55464;48.266;14.188;2022-07-29T02:44:53;4.57;;;4.07;;
68475;SDS011;55464;48.266;14.188;2022-07-29T02:47:36;5.82;;;4.40;;
68475;SDS011;55464;48.266;14.188;2022-07-29T02:50:09;5.60;;;4.47;;
68475;SDS011;55464;48.266;14.188;2022-07-29T02:52:47;4.32;;;3.92;;
68475;SDS011;55464;48.266;14.188;2022-07-29T02:55:23;5.60;;;4.25;;
68475;SDS011;55464;48.266;14.188;2022-07-29T02:58:12;9.30;;;5.95;;
68475;SDS011;55464;48.266;14.188;2022-07-29T03:00:59;6.13;;;4.47;;
68475;SDS011;55464;48.266;14.188;2022-07-29T03:03:29;6.90;;;3.78;;
68475;SDS011;55464;48.266;14.188;2022-07-29T03:05:57;4.25;;;3.78;;
68475;SDS011;55464;48.266;14.188;2022-07-29T03:08:26;5.00;;;4.50;;
68475;SDS011;55464;48.266;14.188;2022-07-29T03:10:52;7.00;;;4.07;;
68475;SDS011;55464;48.266;14.188;2022-07-29T03:13:19;7.90;;;4.35;;
68475;SDS011;55464;48.266;14.188;2022-07-29T03:15:45;5.82;;;4.03;;
68475;SDS011;55464;48.266;14.188;2022-07-29T03:18:12;6.95;;;4.53;;
68475;SDS011;55464;48.266;14.188;2022-07-29T03:20:38;5.20;;;4.10;;
68475;SDS011;55464;48.266;14.188;2022-07-29T03:23:04;4.68;;;4.28;;
68475;SDS011;55464;48.266;14.188;2022-07-29T03:25:30;6.75;;;4.80;;
68475;SDS011;55464;48.266;14.188;2022-07-29T03:27:56;6.30;;;4.45;;
68475;SDS011;55464;48.266;14.188;2022-07-29T03:30:22;5.05;;;4.55;;
68475;SDS011;55464;48.266;14.188;2022-07-29T03:32:48;6.45;;;4.20;;
68475;SDS011;55464;48.266;14.188;2022-07-29T03:35:15;5.93;;;4.32;;
68475;SDS011;55464;48.266;14.188;2022-07-29T03:37:44;4.72;;;4.32;;
68475;SDS011;55464;48.266;14.188;2022-07-29T03:40:10;7.30;;;4.90;;
68475;SDS011;55464;48.266;14.188;2022-07-29T03:42:39;6.75;;;4.32;;
68475;SDS011;55464;48.266;14.188;2022-07-29T03:45:08;7.38;;;4.22;;
68475;SDS011;55464;48.266;14.188;2022-07-29T03:47:38;6.40;;;4.68;;
68475;SDS011;55464;48.266;14.188;2022-07-29T03:50:07;5.18;;;4.35;;
68475;SDS011;55464;48.266;14.188;2022-07-29T03:52:36;5.07;;;4.60;;
68475;SDS011;55464;48.266;14.188;2022-07-29T03:55:02;7.60;;;4.85;;
68475;SDS011;55464;48.266;14.188;2022-07-29T03:57:29;5.45;;;4.40;;
68475;SDS011;55464;48.266;14.188;2022-07-29T03:59:56;5.22;;;4.00;;
68475;SDS011;55464;48.266;14.188;2022-07-29T04:02:23;5.13;;;4.40;;
68475;SDS011;55464;48.266;14.188;2022-07-29T04:04:50;6.05;;;5.00;;
68475;SDS011;55464;48.266;14.188;2022-07-29T04:07:16;5.30;;;4.68;;
68475;SDS011;55464;48.266;14.188;2022-07-29T04:09:42;7.43;;;5.22;;
68475;SDS011;55464;48.266;14.188;2022-07-29T04:12:08;7.25;;;4.65;;
68475;SDS011;55464;48.266;14.188;2022-07-29T04:14:34;5.07;;;4.57;;
68475;SDS011;55464;48.266;14.188;2022-07-29T04:17:00;5.30;;;4.70;;
68475;SDS011;55464;48.266;14.188;2022-07-29T04:19:26;5.80;;;4.70;;
68475;SDS011;55464;48.266;14.188;2022-07-29T04:21:52;6.90;;;5.00;;
68475;SDS011;55464;48.266;14.188;2022-07-29T04:24:18;6.65;;;4.70;;
68475;SDS011;55464;48.266;14.188;2022-07-29T04:26:45;4.80;;;4.30;;
68475;SDS011;55464;48.266;14.188;2022-07-29T04:29:11;5.47;;;4.40;;
68475;SDS011;55464;48.266;14.188;2022-07-29T04:31:39;4.57;;;3.88;;
68475;SDS011;55464;48.266;14.188;2022-07-29T04:34:05;9.00;;;4.78;;
68475;SDS011;55464;48.266;14.188;2022-07-29T04:36:31;4.78;;;4.28;;
68475;SDS011;55464;48.266;14.188;2022-07-29T04:38:57;6.40;;;5.13;;
68475;SDS011;55464;48.266;14.188;2022-07-29T04:41:22;5.45;;;4.88;;
68475;SDS011;55464;48.266;14.188;2022-07-29T04:43:48;6.43;;;4.65;;
68475;SDS011;55464;48.266;14.188;2022-07-29T04:46:14;7.47;;;5.03;;
68475;SDS011;55464;48.266;14.188;2022-07-29T04:48:40;6.10;;;4.60;;
68475;SDS011;55464;48.266;14.188;2022-07-29T04:51:06;8.85;;;4.78;;
68475;SDS011;55464;48.266;14.188;2022-07-29T04:53:31;6.65;;;5.00;;
68475;SDS011;55464;48.266;14.188;2022-07-29T04:55:57;8.07;;;4.95;;
68475;SDS011;55464;48.266;14.188;2022-07-29T04:58:23;6.45;;;4.95;;
68475;SDS011;55464;48.266;14.188;2022-07-29T05:00:49;8.02;;;4.75;;
68475;SDS011;55464;48.266;14.188;2022-07-29T05:03:15;6.30;;;5.05;;
68475;SDS011;55464;48.266;14.188;2022-07-29T05:05:41;5.20;;;4.70;;
68475;SDS011;55464;48.266;14.188;2022-07-29T05:08:07;6.60;;;4.90;;
68475;SDS011;55464;48.266;14.188;2022-07-29T05:10:33;8.18;;;4.95;;
68475;SDS011;55464;48.266;14.188;2022-07-29T05:13:03;5.68;;;4.88;;
68475;SDS011;55464;48.266;14.188;2022-07-29T05:15:35;9.68;;;5.40;;
68475;SDS011;55464;48.266;14.188;2022-07-29T05:18:02;8.15;;;5.10;;
68475;SDS011;55464;48.266;14.188;2022-07-29T05:20:28;7.72;;;5.53;;
68475;SDS011;55464;48.266;14.188;2022-07-29T05:22:55;7.10;;;4.32;;
68475;SDS011;55464;48.266;14.188;2022-07-29T05:27:52;5.10;;;4.60;;
68475;SDS011;55464;48.266;14.188;2022-07-29T05:30:17;7.82;;;4.80;;
68475;SDS011;55464;48.266;14.188;2022-07-29T05:32:44;6.28;;;4.47;;
68475;SDS011;55464;48.266;14.188;2022-07-29T05:35:09;7.47;;;4.70;;
68475;SDS011;55464;48.266;14.188;2022-07-29T05:37:36;6.22;;;4.93;;
68475;SDS011;55464;48.266;14.188;2022-07-29T05:40:02;6.00;;;4.47;;
68475;SDS011;55464;48.266;14.188;2022-07-29T05:42:29;7.22;;;4.47;;
68475;SDS011;55464;48.266;14.188;2022-07-29T05:44:55;6.72;;;4.95;;
68475;SDS011;55464;48.266;14.188;2022-07-29T05:47:21;6.60;;;4.45;;
68475;SDS011;55464;48.266;14.188;2022-07-29T05:49:47;8.38;;;4.15;;
68475;SDS011;55464;48.266;14.188;2022-07-29T05:52:16;5.03;;;4.45;;
68475;SDS011;55464;48.266;14.188;2022-07-29T05:54:42;7.22;;;4.38;;
68475;SDS011;55464;48.266;14.188;2022-07-29T05:57:08;7.13;;;4.97;;
68475;SDS011;55464;48.266;14.188;2022-07-29T05:59:39;6.90;;;3.92;;
68475;SDS011;55464;48.266;14.188;2022-07-29T06:02:05;5.20;;;4.70;;
68475;SDS011;55464;48.266;14.188;2022-07-29T06:04:31;6.93;;;4.57;;
68475;SDS011;55464;48.266;14.188;2022-07-29T06:06:57;5.05;;;4.55;;
68475;SDS011;55464;48.266;14.188;2022-07-29T06:09:23;10.38;;;6.65;;
68475;SDS011;55464;48.266;14.188;2022-07-29T06:11:48;5.97;;;4.68;;
68475;SDS011;55464;48.266;14.188;2022-07-29T06:14:14;5.57;;;3.90;;
68475;SDS011;55464;48.266;14.188;2022-07-29T06:16:40;6.63;;;3.75;;
68475;SDS011;55464;48.266;14.188;2022-07-29T06:19:06;5.50;;;3.75;;
68475;SDS011;55464;48.266;14.188;2022-07-29T06:21:31;6.95;;;4.05;;
68475;SDS011;55464;48.266;14.188;2022-07-29T06:23:58;4.88;;;3.88;;
68475;SDS011;55464;48.266;14.188;2022-07-29T06:26:24;5.82;;;4.50;;
68475;SDS011;55464;48.266;14.188;2022-07-29T06:28:49;5.97;;;4.50;;
68475;SDS011;55464;48.266;14.188;2022-07-29T06:31:15;7.70;;;4.13;;
68475;SDS011;55464;48.266;14.188;2022-07-29T06:33:41;7.50;;;4.25;;
68475;SDS011;55464;48.266;14.188;2022-07-29T06:36:06;4.97;;;4.47;;
68475;SDS011;55464;48.266;14.188;2022-07-29T06:38:32;6.38;;;4.45;;
68475;SDS011;55464;48.266;14.188;2022-07-29T06:40:59;4.65;;;3.83;;
68475;SDS011;55464;48.266;14.188;2022-07-29T06:43:26;6.97;;;4.70;;
68475;SDS011;55464;48.266;14.188;2022-07-29T06:46:00;8.88;;;4.97;;
68475;SDS011;55464;48.266;14.188;2022-07-29T06:48:27;9.65;;;5.28;;
68475;SDS011;55464;48.266;14.188;2022-07-29T06:50:53;9.00;;;4.80;;
68475;SDS011;55464;48.266;14.188;2022-07-29T06:53:19;10.68;;;5.40;;
68475;SDS011;55464;48.266;14.188;2022-07-29T06:55:45;9.93;;;5.55;;
68475;SDS011;55464;48.266;14.188;2022-07-29T06:58:11;6.07;;;4.80;;
68475;SDS011;55464;48.266;14.188;2022-07-29T07:00:37;7.93;;;5.32;;
68475;SDS011;55464;48.266;14.188;2022-07-29T07:03:03;6.15;;;4.72;;
68475;SDS011;55464;48.266;14.188;2022-07-29T07:05:28;7.85;;;4.95;;
68475;SDS011;55464;48.266;14.188;2022-07-29T07:07:54;7.88;;;4.88;;
68475;SDS011;55464;48.266;14.188;2022-07-29T07:10:20;6.88;;;5.10;;
68475;SDS011;55464;48.266;14.188;2022-07-29T07:12:45;8.85;;;4.60;;
68475;SDS011;55464;48.266;14.188;2022-07-29T07:15:11;6.68;;;4.93;;
68475;SDS011;55464;48.266;14.188;2022-07-29T07:17:36;6.60;;;4.78;;
68475;SDS011;55464;48.266;14.188;2022-07-29T07:20:03;7.95;;;4.70;;
68475;SDS011;55464;48.266;14.188;2022-07-29T07:22:30;9.85;;;5.10;;
68475;SDS011;55464;48.266;14.188;2022-07-29T07:24:55;6.35;;;4.35;;
68475;SDS011;55464;48.266;14.188;2022-07-29T07:27:21;7.68;;;4.70;;
68475;SDS011;55464;48.266;14.188;2022-07-29T07:29:47;7.75;;;5.05;;
68475;SDS011;55464;48.266;14.188;2022-07-29T07:32:13;6.07;;;4.50;;
68475;SDS011;55464;48.266;14.188;2022-07-29T07:34:41;6.53;;;4.63;;
68475;SDS011;55464;48.266;14.188;2022-07-29T07:37:08;5.93;;;4.75;;
68475;SDS011;55464;48.266;14.188;2022-07-29T07:39:34;9.38;;;5.00;;
68475;SDS011;55464;48.266;14.188;2022-07-29T07:41:59;6.40;;;4.30;;
68475;SDS011;55464;48.266;14.188;2022-07-29T07:44:25;7.05;;;4.82;;
68475;SDS011;55464;48.266;14.188;2022-07-29T07:46:51;5.85;;;4.70;;
68475;SDS011;55464;48.266;14.188;2022-07-29T07:49:17;8.75;;;5.25;;
68475;SDS011;55464;48.266;14.188;2022-07-29T07:51:43;7.20;;;4.63;;
68475;SDS011;55464;48.266;14.188;2022-07-29T07:54:08;6.18;;;5.00;;
68475;SDS011;55464;48.266;14.188;2022-07-29T07:56:34;8.70;;;5.15;;
68475;SDS011;55464;48.266;14.188;2022-07-29T07:59:00;4.75;;;4.13;;
68475;SDS011;55464;48.266;14.188;2022-07-29T08:01:26;7.35;;;4.05;;
68475;SDS011;55464;48.266;14.188;2022-07-29T08:03:51;6.03;;;4.32;;
68475;SDS011;55464;48.266;14.188;2022-07-29T08:06:17;5.32;;;4.25;;
68475;SDS011;55464;48.266;14.188;2022-07-29T08:08:43;4.82;;;4.03;;
68475;SDS011;55464;48.266;14.188;2022-07-29T08:11:09;5.60;;;4.22;;
68475;SDS011;55464;48.266;14.188;2022-07-29T08:13:34;7.18;;;4.90;;
68475;SDS011;55464;48.266;14.188;2022-07-29T08:16:00;6.60;;;4.57;;
68475;SDS011;55464;48.266;14.188;2022-07-29T08:18:29;7.35;;;4.47;;
68475;SDS011;55464;48.266;14.188;2022-07-29T08:20:56;4.63;;;4.03;;
68475;SDS011;55464;48.266;14.188;2022-07-29T08:23:22;6.32;;;4.43;;
68475;SDS011;55464;48.266;14.188;2022-07-29T08:25:48;7.75;;;4.43;;
68475;SDS011;55464;48.266;14.188;2022-07-29T08:28:15;6.50;;;3.90;;
68475;SDS011;55464;48.266;14.188;2022-07-29T08:30:40;9.90;;;4.82;;
68475;SDS011;55464;48.266;14.188;2022-07-29T08:33:06;6.50;;;4.47;;
68475;SDS011;55464;48.266;14.188;2022-07-29T08:35:32;8.55;;;5.22;;
68475;SDS011;55464;48.266;14.188;2022-07-29T08:37:57;6.47;;;4.32;;
68475;SDS011;55464;48.266;14.188;2022-07-29T08:40:23;7.25;;;4.47;;
68475;SDS011;55464;48.266;14.188;2022-07-29T08:42:50;6.85;;;4.13;;
68475;SDS011;55464;48.266;14.188;2022-07-29T08:45:16;5.35;;;3.75;;
68475;SDS011;55464;48.266;14.188;2022-07-29T08:47:43;5.93;;;4.05;;
68475;SDS011;55464;48.266;14.188;2022-07-29T08:50:09;5.00;;;4.18;;
68475;SDS011;55464;48.266;14.188;2022-07-29T08:52:36;5.80;;;4.15;;
68475;SDS011;55464;48.266;14.188;2022-07-29T08:55:04;8.38;;;3.72;;
68475;SDS011;55464;48.266;14.188;2022-07-29T08:57:31;8.13;;;4.13;;
68475;SDS011;55464;48.266;14.188;2022-07-29T08:59:59;7.00;;;4.30;;
68475;SDS011;55464;48.266;14.188;2022-07-29T09:02:26;4.82;;;3.95;;
68475;SDS011;55464;48.266;14.188;2022-07-29T09:04:54;5.28;;;4.10;;
68475;SDS011;55464;48.266;14.188;2022-07-29T09:07:22;6.35;;;4.55;;
68475;SDS011;55464;48.266;14.188;2022-07-29T09:09:48;10.55;;;5.20;;
68475;SDS011;55464;48.266;14.188;2022-07-29T09:12:14;8.30;;;4.13;;
68475;SDS011;55464;48.266;14.188;2022-07-29T09:14:40;7.60;;;4.75;;
68475;SDS011;55464;48.266;14.188;2022-07-29T09:17:06;7.43;;;4.07;;
68475;SDS011;55464;48.266;14.188;2022-07-29T09:19:33;5.05;;;4.40;;
68475;SDS011;55464;48.266;14.188;2022-07-29T09:22:00;4.32;;;3.92;;
68475;SDS011;55464;48.266;14.188;2022-07-29T09:27:00;6.20;;;4.03;;
68475;SDS011;55464;48.266;14.188;2022-07-29T09:29:26;5.70;;;4.32;;
68475;SDS011;55464;48.266;14.188;2022-07-29T09:31:53;8.40;;;4.28;;
68475;SDS011;55464;48.266;14.188;2022-07-29T09:34:23;6.07;;;3.85;;
68475;SDS011;55464;48.266;14.188;2022-07-29T09:36:51;4.85;;;4.30;;
68475;SDS011;55464;48.266;14.188;2022-07-29T09:39:51;7.13;;;4.00;;
68475;SDS011;55464;48.266;14.188;2022-07-29T09:42:13;7.07;;;4.43;;
68475;SDS011;55464;48.266;14.188;2022-07-29T09:44:45;7.05;;;4.60;;
68475;SDS011;55464;48.266;14.188;2022-07-29T09:47:13;9.18;;;4.38;;
68475;SDS011;55464;48.266;14.188;2022-07-29T09:49:57;6.25;;;4.40;;
68475;SDS011;55464;48.266;14.188;2022-07-29T09:52:24;10.35;;;4.75;;
68475;SDS011;55464;48.266;14.188;2022-07-29T09:54:51;8.98;;;4.72;;
68475;SDS011;55464;48.266;14.188;2022-07-29T09:57:26;8.05;;;4.70;;
68475;SDS011;55464;48.266;14.188;2022-07-29T10:00:07;7.70;;;5.45;;
68475;SDS011;55464;48.266;14.188;2022-07-29T10:02:34;10.32;;;5.30;;
68475;SDS011;55464;48.266;14.188;2022-07-29T10:05:02;11.10;;;5.28;;
68475;SDS011;55464;48.266;14.188;2022-07-29T10:07:45;8.45;;;4.90;;
68475;SDS011;55464;48.266;14.188;2022-07-29T10:12:55;17.38;;;6.47;;
68475;SDS011;55464;48.266;14.188;2022-07-29T10:15:23;14.07;;;6.95;;
68475;SDS011;55464;48.266;14.188;2022-07-29T10:17:51;14.95;;;6.68;;
68475;SDS011;55464;48.266;14.188;2022-07-29T10:20:19;18.10;;;8.13;;
68475;SDS011;55464;48.266;14.188;2022-07-29T10:22:46;22.02;;;7.38;;
68475;SDS011;55464;48.266;14.188;2022-07-29T10:25:12;18.17;;;7.35;;
68475;SDS011;55464;48.266;14.188;2022-07-29T10:27:40;18.02;;;7.03;;
68475;SDS011;55464;48.266;14.188;2022-07-29T10:30:07;13.52;;;6.82;;
68475;SDS011;55464;48.266;14.188;2022-07-29T10:38:05;13.70;;;5.80;;
68475;SDS011;55464;48.266;14.188;2022-07-29T10:43:43;16.23;;;6.88;;
68475;SDS011;55464;48.266;14.188;2022-07-29T10:46:11;13.32;;;5.72;;
68475;SDS011;55464;48.266;14.188;2022-07-29T10:51:54;15.65;;;6.07;;
68475;SDS011;55464;48.266;14.188;2022-07-29T11:07:25;19.95;;;6.60;;
68475;SDS011;55464;48.266;14.188;2022-07-29T11:15:10;10.38;;;4.68;;
68475;SDS011;55464;48.266;14.188;2022-07-29T11:20:40;14.70;;;6.07;;
68475;SDS011;55464;48.266;14.188;2022-07-29T11:23:26;10.50;;;5.10;;
68475;SDS011;55464;48.266;14.188;2022-07-29T11:31:13;12.40;;;4.75;;
68475;SDS011;55464;48.266;14.188;2022-07-29T11:33:41;16.52;;;5.00;;
68475;SDS011;55464;48.266;14.188;2022-07-29T11:36:13;7.53;;;3.88;;
68475;SDS011;55464;48.266;14.188;2022-07-29T11:38:40;4.70;;;3.78;;
68475;SDS011;55464;48.266;14.188;2022-07-29T11:43:54;6.22;;;3.33;;
68475;SDS011;55464;48.266;14.188;2022-07-29T11:49:24;3.15;;;2.85;;
68475;SDS011;55464;48.266;14.188;2022-07-29T11:51:54;2.92;;;2.60;;
68475;SDS011;55464;48.266;14.188;2022-07-29T11:54:23;3.65;;;2.80;;
68475;SDS011;55464;48.266;14.188;2022-07-29T11:56:51;4.38;;;2.42;;
68475;SDS011;55464;48.266;14.188;2022-07-29T11:59:17;3.83;;;2.50;;
68475;SDS011;55464;48.266;14.188;2022-07-29T12:01:54;3.92;;;2.80;;
68475;SDS011;55464;48.266;14.188;2022-07-29T12:04:21;3.83;;;2.55;;
68475;SDS011;55464;48.266;14.188;2022-07-29T12:09:17;3.10;;;2.50;;
68475;SDS011;55464;48.266;14.188;2022-07-29T12:11:44;3.50;;;2.45;;
68475;SDS011;55464;48.266;14.188;2022-07-29T12:14:30;6.10;;;3.47;;
68475;SDS011;55464;48.266;14.188;2022-07-29T12:16:57;4.47;;;3.30;;
68475;SDS011;55464;48.266;14.188;2022-07-29T12:19:24;6.00;;;3.45;;
68475;SDS011;55464;48.266;14.188;2022-07-29T12:21:51;6.55;;;3.78;;
68475;SDS011;55464;48.266;14.188;2022-07-29T12:24:19;3.90;;;2.97;;
68475;SDS011;55464;48.266;14.188;2022-07-29T12:26:52;6.95;;;3.63;;
68475;SDS011;55464;48.266;14.188;2022-07-29T12:29:19;5.43;;;3.60;;
68475;SDS011;55464;48.266;14.188;2022-07-29T12:31:45;5.75;;;3.15;;
68475;SDS011;55464;48.266;14.188;2022-07-29T12:34:15;7.47;;;3.58;;
68475;SDS011;55464;48.266;14.188;2022-07-29T12:36:41;4.93;;;2.90;;
68475;SDS011;55464;48.266;14.188;2022-07-29T12:39:08;3.25;;;2.80;;
68475;SDS011;55464;48.266;14.188;2022-07-29T12:41:34;5.97;;;3.08;;
68475;SDS011;55464;48.266;14.188;2022-07-29T12:44:00;5.07;;;3.33;;
68475;SDS011;55464;48.266;14.188;2022-07-29T12:46:26;6.88;;;3.50;;
68475;SDS011;55464;48.266;14.188;2022-07-29T12:48:53;3.78;;;3.03;;
68475;SDS011;55464;48.266;14.188;2022-07-29T12:51:31;5.97;;;3.47;;
68475;SDS011;55464;48.266;14.188;2022-07-29T12:56:39;3.50;;;2.72;;
68475;SDS011;55464;48.266;14.188;2022-07-29T12:59:20;3.83;;;2.58;;
68475;SDS011;55464;48.266;14.188;2022-07-29T13:01:47;4.88;;;2.70;;
68475;SDS011;55464;48.266;14.188;2022-07-29T13:04:25;4.95;;;2.67;;
68475;SDS011;55464;48.266;14.188;2022-07-29T13:07:02;3.72;;;2.50;;
68475;SDS011;55464;48.266;14.188;2022-07-29T13:09:44;4.10;;;2.83;;
68475;SDS011;55464;48.266;14.188;2022-07-29T13:12:13;6.68;;;3.45;;
68475;SDS011;55464;48.266;14.188;2022-07-29T13:14:43;3.25;;;2.50;;
68475;SDS011;55464;48.266;14.188;2022-07-29T13:17:17;6.63;;;3.50;;
68475;SDS011;55464;48.266;14.188;2022-07-29T13:19:52;4.85;;;2.97;;
68475;SDS011;55464;48.266;14.188;2022-07-29T13:22:29;3.83;;;2.53;;
68475;SDS011;55464;48.266;14.188;2022-07-29T13:24:55;6.50;;;2.67;;
68475;SDS011;55464;48.266;14.188;2022-07-29T13:27:22;2.92;;;2.33;;
68475;SDS011;55464;48.266;14.188;2022-07-29T13:29:50;4.38;;;2.50;;
68475;SDS011;55464;48.266;14.188;2022-07-29T13:32:17;3.30;;;2.13;;
68475;SDS011;55464;48.266;14.188;2022-07-29T13:34:44;2.80;;;2.42;;
68475;SDS011;55464;48.266;14.188;2022-07-29T13:37:09;4.28;;;2.80;;
68475;SDS011;55464;48.266;14.188;2022-07-29T13:39:36;2.35;;;2.15;;
68475;SDS011;55464;48.266;14.188;2022-07-29T13:42:02;3.10;;;2.20;;
68475;SDS011;55464;48.266;14.188;2022-07-29T13:44:31;2.35;;;2.15;;
68475;SDS011;55464;48.266;14.188;2022-07-29T13:46:57;2.47;;;1.65;;
68475;SDS011;55464;48.266;14.188;2022-07-29T13:49:24;3.33;;;1.90;;
68475;SDS011;55464;48.266;14.188;2022-07-29T13:51:50;3.95;;;2.10;;
68475;SDS011;55464;48.266;14.188;2022-07-29T13:54:16;2.22;;;2.03;;
68475;SDS011;55464;48.266;14.188;2022-07-29T13:56:41;2.38;;;1.73;;
68475;SDS011;55464;48.266;14.188;2022-07-29T13:59:07;4.40;;;2.25;;
68475;SDS011;55464;48.266;14.188;2022-07-29T14:01:34;1.70;;;1.60;;
68475;SDS011;55464;48.266;14.188;2022-07-29T14:04:00;1.98;;;1.80;;
68475;SDS011;55464;48.266;14.188;2022-07-29T14:06:26;1.52;;;1.40;;
68475;SDS011;55464;48.266;14.188;2022-07-29T14:08:51;1.95;;;1.63;;
68475;SDS011;55464;48.266;14.188;2022-07-29T14:11:17;1.63;;;1.52;;
68475;SDS011;55464;48.266;14.188;2022-07-29T14:13:43;1.85;;;1.60;;
68475;SDS011;55464;48.266;14.188;2022-07-29T14:16:09;2.33;;;1.40;;
68475;SDS011;55464;48.266;14.188;2022-07-29T14:18:34;2.28;;;1.35;;
68475;SDS011;55464;48.266;14.188;2022-07-29T14:21:00;2.40;;;1.63;;
68475;SDS011;55464;48.266;14.188;2022-07-29T14:23:26;3.63;;;2.38;;
68475;SDS011;55464;48.266;14.188;2022-07-29T14:25:52;3.05;;;1.98;;
68475;SDS011;55464;48.266;14.188;2022-07-29T14:28:17;2.53;;;1.98;;
68475;SDS011;55464;48.266;14.188;2022-07-29T14:30:43;2.17;;;1.90;;
68475;SDS011;55464;48.266;14.188;2022-07-29T14:33:09;2.22;;;1.80;;
68475;SDS011;55464;48.266;14.188;2022-07-29T14:35:34;2.25;;;1.92;;
68475;SDS011;55464;48.266;14.188;2022-07-29T14:38:00;3.47;;;2.15;;
68475;SDS011;55464;48.266;14.188;2022-07-29T14:40:26;2.75;;;1.95;;
68475;SDS011;55464;48.266;14.188;2022-07-29T14:42:51;2.25;;;1.70;;
68475;SDS011;55464;48.266;14.188;2022-07-29T14:45:17;1.80;;;1.70;;
68475;SDS011;55464;48.266;14.188;2022-07-29T14:47:43;2.58;;;1.90;;
68475;SDS011;55464;48.266;14.188;2022-07-29T14:50:09;3.90;;;2.72;;
68475;SDS011;55464;48.266;14.188;2022-07-29T14:52:35;2.97;;;2.65;;
68475;SDS011;55464;48.266;14.188;2022-07-29T14:55:01;4.40;;;2.75;;
68475;SDS011;55464;48.266;14.188;2022-07-29T14:57:28;2.47;;;2.10;;
68475;SDS011;55464;48.266;14.188;2022-07-29T14:59:53;3.17;;;2.67;;
68475;SDS011;55464;48.266;14.188;2022-07-29T15:02:19;3.10;;;2.50;;
68475;SDS011;55464;48.266;14.188;2022-07-29T15:04:45;2.40;;;2.20;;
68475;SDS011;55464;48.266;14.188;2022-07-29T15:07:12;3.58;;;2.63;;
68475;SDS011;55464;48.266;14.188;2022-07-29T15:09:39;3.42;;;2.47;;
68475;SDS011;55464;48.266;14.188;2022-07-29T15:12:05;4.28;;;2.53;;
68475;SDS011;55464;48.266;14.188;2022-07-29T15:14:31;3.25;;;2.38;;
68475;SDS011;55464;48.266;14.188;2022-07-29T15:16:57;2.17;;;1.98;;
68475;SDS011;55464;48.266;14.188;2022-07-29T15:19:23;2.67;;;2.30;;
68475;SDS011;55464;48.266;14.188;2022-07-29T15:21:48;2.20;;;2.00;;
68475;SDS011;55464;48.266;14.188;2022-07-29T15:24:15;1.92;;;1.80;;
68475;SDS011;55464;48.266;14.188;2022-07-29T15:26:41;3.03;;;2.45;;
68475;SDS011;55464;48.266;14.188;2022-07-29T15:29:07;3.22;;;2.10;;
68475;SDS011;55464;48.266;14.188;2022-07-29T15:31:33;2.55;;;2.10;;
68475;SDS011;55464;48.266;14.188;2022-07-29T15:33:59;2.60;;;2.40;;
68475;SDS011;55464;48.266;14.188;2022-07-29T15:36:25;2.63;;;1.95;;
68475;SDS011;55464;48.266;14.188;2022-07-29T15:38:53;3.35;;;2.10;;
68475;SDS011;55464;48.266;14.188;2022-07-29T15:41:19;2.15;;;2.05;;
68475;SDS011;55464;48.266;14.188;2022-07-29T15:43:46;3.83;;;2.10;;
68475;SDS011;55464;48.266;14.188;2022-07-29T15:46:15;1.92;;;1.77;;
68475;SDS011;55464;48.266;14.188;2022-07-29T15:49:01;3.00;;;2.20;;
68475;SDS011;55464;48.266;14.188;2022-07-29T15:51:28;3.10;;;1.98;;